Time;durP1;ratioP1;P1;durP2;ratioP2;P2;SDS_P1;SDS_P2;PMS_P1;PMS_P2;Temp;Humidity;BMP_temperature;BMP_pressure;BME280_temperature;BME280_humidity;BME280_pressure;Samples;Min_cycle;Max_cycle;Signal;HPM_P1;HPM_P2
2022/05/24 00:02:04;;;;;;;7.00;2.70;;;17.00;72.30;;;;;;5059201;28;46302;-63
2022/05/24 00:04:30;;;;;;;7.73;3.23;;;17.00;72.20;;;;;;5052357;28;46259;-62
2022/05/24 00:06:56;;;;;;;9.43;2.80;;;17.00;71.90;;;;;;5052071;28;48355;-62
2022/05/24 00:09:22;;;;;;;7.60;3.10;;;17.10;71.80;;;;;;5051883;28;46325;-62
2022/05/24 00:11:48;;;;;;;6.47;3.07;;;17.10;71.80;;;;;;5055768;28;46417;-62
2022/05/24 00:14:14;;;;;;;7.77;3.00;;;17.10;71.70;;;;;;5050061;28;46271;-63
2022/05/24 00:16:40;;;;;;;6.90;2.53;;;17.10;71.80;;;;;;5060440;28;46409;-62
2022/05/24 00:19:06;;;;;;;7.83;2.83;;;17.10;71.70;;;;;;5052815;28;46085;-62
2022/05/24 00:21:31;;;;;;;10.90;3.10;;;17.20;71.70;;;;;;5057719;28;46371;-62
2022/05/24 00:23:57;;;;;;;7.50;2.90;;;17.20;71.60;;;;;;5054510;28;46597;-62
2022/05/24 00:26:30;;;;;;;4.63;2.80;;;17.20;71.80;;;;;;5050950;28;46904;-62
2022/05/24 00:28:55;;;;;;;10.70;3.30;;;17.20;71.70;;;;;;5058680;28;46401;-62
2022/05/24 00:31:22;;;;;;;12.70;3.50;;;17.20;71.80;;;;;;5051381;28;46334;-62
2022/05/24 00:33:47;;;;;;;7.07;3.20;;;17.10;72.00;;;;;;5058376;28;46294;-60
2022/05/24 00:36:13;;;;;;;10.83;2.90;;;17.10;72.30;;;;;;5054662;28;46248;-63
2022/05/24 00:38:39;;;;;;;5.80;3.10;;;17.00;72.80;;;;;;5053255;28;46412;-62
2022/05/24 00:41:31;;;;;;;5.63;3.03;;;17.00;72.80;;;;;;5057887;28;46427;-61
2022/05/24 00:44:27;;;;;;;5.10;2.80;;;16.90;73.00;;;;;;5052178;28;45925;-63
2022/05/24 00:47:11;;;;;;;12.40;3.37;;;16.90;72.90;;;;;;5054870;28;47868;-63
2022/05/24 00:49:48;;;;;;;7.13;3.13;;;16.90;73.00;;;;;;5052017;28;46384;-63
2022/05/24 00:52:13;;;;;;;7.27;2.63;;;16.90;73.10;;;;;;5054278;28;46686;-62
2022/05/24 00:54:40;;;;;;;12.47;2.73;;;16.80;73.20;;;;;;5054603;28;46514;-62
2022/05/24 00:57:31;;;;;;;6.47;2.90;;;16.80;73.40;;;;;;5048448;28;46620;-63
2022/05/24 01:00:08;;;;;;;8.30;3.30;;;16.70;73.80;;;;;;5051689;28;46411;-62
2022/05/24 01:02:36;;;;;;;7.03;3.40;;;16.70;74.00;;;;;;5050239;28;46317;-62
2022/05/24 01:05:03;;;;;;;6.33;3.00;;;16.60;73.80;;;;;;5053268;28;46634;-62
2022/05/24 01:07:29;;;;;;;6.87;3.50;;;16.60;74.20;;;;;;5048844;28;46270;-62
2022/05/24 01:09:58;;;;;;;5.20;3.03;;;16.60;74.30;;;;;;5047767;28;45883;-61
2022/05/24 01:12:44;;;;;;;6.90;3.30;;;16.60;74.20;;;;;;5051057;28;45877;-62
2022/05/24 01:15:12;;;;;;;6.80;3.60;;;16.50;74.20;;;;;;5049377;28;46286;-62
2022/05/24 01:17:39;;;;;;;4.43;2.50;;;16.60;74.30;;;;;;5052635;28;47347;-62
2022/05/24 01:20:06;;;;;;;7.43;3.00;;;16.60;74.10;;;;;;5058849;28;46326;-62
2022/05/24 01:22:31;;;;;;;6.13;3.83;;;16.60;74.10;;;;;;5051610;28;46441;-60
2022/05/24 01:25:08;;;;;;;6.30;3.10;;;16.60;74.20;;;;;;5054261;28;46428;-62
2022/05/24 01:27:35;;;;;;;6.17;3.33;;;16.50;74.10;;;;;;5055667;28;46974;-62
2022/05/24 01:30:03;;;;;;;7.10;3.30;;;16.50;74.20;;;;;;5052350;28;46509;-62
2022/05/24 01:38:02;;;;;;;6.43;3.00;;;16.50;75.30;;;;;;5050730;28;46453;-62
2022/05/24 01:40:28;;;;;;;6.00;3.20;;;16.60;74.10;;;;;;5052072;28;46429;-62
2022/05/24 01:42:54;;;;;;;7.93;3.17;;;16.60;73.90;;;;;;5052172;28;45883;-63
2022/05/24 01:45:25;;;;;;;8.03;3.40;;;16.60;73.60;;;;;;5050412;28;46426;-62
2022/05/24 01:47:55;;;;;;;7.30;3.10;;;16.70;73.60;;;;;;5049679;28;47037;-61
2022/05/24 01:50:23;;;;;;;5.90;3.30;;;16.70;73.30;;;;;;5049832;28;46282;-61
2022/05/24 01:52:54;;;;;;;5.93;3.10;;;16.70;73.30;;;;;;5051916;28;46461;-62
2022/05/24 01:55:27;;;;;;;12.93;4.27;;;16.70;74.40;;;;;;5049894;28;46831;-63
2022/05/24 01:57:58;;;;;;;4.80;2.63;;;16.70;73.30;;;;;;5049389;28;47043;-62
2022/05/24 02:00:23;;;;;;;6.93;3.30;;;16.60;73.30;;;;;;5047710;28;46275;-62
2022/05/24 02:02:49;;;;;;;6.70;3.10;;;16.60;73.60;;;;;;5048023;28;46308;-61
2022/05/24 02:05:35;;;;;;;6.80;3.40;;;16.50;73.60;;;;;;5050758;28;46360;-62
2022/05/24 02:08:03;;;;;;;6.43;3.50;;;16.50;73.70;;;;;;5046111;28;47126;-62
2022/05/24 02:10:35;;;;;;;11.00;3.33;;;16.50;73.70;;;;;;5047579;28;46423;-62
2022/05/24 02:13:02;;;;;;;15.90;3.40;;;16.50;73.80;;;;;;5044887;28;46370;-62
2022/05/24 02:15:33;;;;;;;6.50;2.87;;;16.40;73.80;;;;;;5049138;28;46623;-62
2022/05/24 02:18:01;;;;;;;7.57;3.50;;;16.40;73.80;;;;;;5050805;28;46602;-62
2022/05/24 02:20:31;;;;;;;6.93;3.10;;;16.40;73.80;;;;;;5053186;28;46424;-62
2022/05/24 02:22:57;;;;;;;9.90;2.97;;;16.40;73.80;;;;;;5053392;28;46432;-62
2022/05/24 02:25:35;;;;;;;9.07;3.57;;;16.40;73.80;;;;;;5052870;28;46373;-62
2022/05/24 02:28:02;;;;;;;5.10;3.27;;;16.40;73.60;;;;;;5043727;28;47266;-61
2022/05/24 02:30:29;;;;;;;5.43;3.20;;;16.40;73.50;;;;;;5042339;28;46425;-62
2022/05/24 02:32:54;;;;;;;9.83;3.00;;;16.40;73.50;;;;;;5045090;28;46890;-62
2022/05/24 02:35:20;;;;;;;9.80;3.37;;;16.30;73.60;;;;;;5044605;28;46451;-61
2022/05/24 02:37:46;;;;;;;9.70;3.07;;;16.30;73.60;;;;;;5047926;28;47191;-61
2022/05/24 02:42:57;;;;;;;6.53;2.90;;;16.20;73.70;;;;;;5044782;28;46378;-62
2022/05/24 02:45:23;;;;;;;8.83;4.20;;;16.20;73.70;;;;;;5046766;28;46636;-62
2022/05/24 02:47:49;;;;;;;4.53;2.90;;;16.20;73.70;;;;;;5047959;28;46780;-61
2022/05/24 02:50:16;;;;;;;6.77;3.37;;;16.20;73.70;;;;;;5053603;28;46433;-62
2022/05/24 02:52:42;;;;;;;12.40;3.03;;;16.20;73.60;;;;;;5052400;28;46373;-62
2022/05/24 02:55:09;;;;;;;6.20;3.07;;;16.30;73.60;;;;;;5053618;28;46517;-62
2022/05/24 02:57:35;;;;;;;6.63;2.53;;;16.30;73.60;;;;;;5051367;28;46974;-62
2022/05/24 03:00:01;;;;;;;5.30;2.70;;;16.30;73.50;;;;;;5046773;28;46433;-62
2022/05/24 03:02:26;;;;;;;4.30;2.83;;;16.40;73.60;;;;;;5055885;28;46338;-61
2022/05/24 03:04:52;;;;;;;6.00;2.70;;;16.30;73.40;;;;;;5050568;28;46409;-61
2022/05/24 03:10:02;;;;;;;7.67;2.43;;;16.40;73.40;;;;;;5051310;28;46636;-62
2022/05/24 03:15:12;;;;;;;8.00;3.03;;;16.40;73.30;;;;;;5052307;28;45834;-62
2022/05/24 03:17:38;;;;;;;6.77;2.97;;;16.40;73.40;;;;;;5049571;28;46308;-62
2022/05/24 03:20:04;;;;;;;5.93;3.03;;;16.40;73.20;;;;;;5049962;28;46397;-61
2022/05/24 03:22:30;;;;;;;7.60;3.03;;;16.40;73.50;;;;;;5055420;28;46395;-62
2022/05/24 03:24:56;;;;;;;13.40;3.17;;;16.30;73.50;;;;;;5052366;28;46346;-63
2022/05/24 03:27:21;;;;;;;6.43;2.37;;;16.30;73.60;;;;;;5055161;28;46620;-61
2022/05/24 03:29:48;;;;;;;5.93;2.77;;;16.30;73.80;;;;;;5050660;28;46553;-62
2022/05/24 03:32:16;;;;;;;7.20;3.30;;;16.30;73.70;;;;;;5052016;28;46540;-62
2022/05/24 03:34:42;;;;;;;7.63;3.07;;;16.30;73.60;;;;;;5053615;28;46371;-63
2022/05/24 03:37:08;;;;;;;8.23;3.33;;;16.30;73.60;;;;;;5048205;28;48773;-62
2022/05/24 03:39:34;;;;;;;11.80;3.03;;;16.30;73.60;;;;;;5052626;28;46468;-63
2022/05/24 03:42:01;;;;;;;8.50;3.13;;;16.30;73.80;;;;;;5050103;28;46330;-62
2022/05/24 03:44:26;;;;;;;3.93;2.57;;;16.30;73.80;;;;;;5049224;28;46465;-61
2022/05/24 03:46:53;;;;;;;5.03;2.50;;;16.30;74.00;;;;;;5056201;28;46385;-62
2022/05/24 03:49:19;;;;;;;6.50;2.83;;;16.30;73.90;;;;;;5056979;28;46431;-60
2022/05/24 03:51:45;;;;;;;6.70;2.77;;;16.30;73.80;;;;;;5059695;28;46444;-61
2022/05/24 03:54:11;;;;;;;6.13;2.80;;;16.30;73.80;;;;;;5057755;28;46459;-63
2022/05/24 03:56:37;;;;;;;4.97;3.07;;;16.30;73.90;;;;;;5053032;28;46369;-63
2022/05/24 03:59:04;;;;;;;4.87;2.57;;;16.40;73.80;;;;;;5052155;28;46742;-62
2022/05/24 04:01:29;;;;;;;9.47;2.40;;;16.40;73.60;;;;;;5057943;28;46310;-62
2022/05/24 04:03:55;;;;;;;4.00;2.47;;;16.40;73.50;;;;;;5053418;28;45881;-61
2022/05/24 04:06:21;;;;;;;4.20;2.47;;;16.40;73.50;;;;;;5055730;28;46500;-62
2022/05/24 04:08:46;;;;;;;4.90;2.90;;;16.40;73.50;;;;;;5053108;28;46422;-62
2022/05/24 04:11:13;;;;;;;9.70;2.90;;;16.40;73.50;;;;;;5052489;28;46671;-62
2022/05/24 04:13:40;;;;;;;8.03;2.80;;;16.40;73.70;;;;;;5053961;28;46374;-62
2022/05/24 04:16:07;;;;;;;5.77;2.80;;;16.40;73.60;;;;;;5053156;28;46362;-63
2022/05/24 04:18:32;;;;;;;5.90;2.67;;;16.50;73.50;;;;;;5052167;28;46424;-62
2022/05/24 04:20:58;;;;;;;4.53;2.40;;;16.50;73.40;;;;;;5053059;28;46302;-62
2022/05/24 04:23:25;;;;;;;5.03;2.70;;;16.60;73.10;;;;;;5051003;28;46649;-62
2022/05/24 04:25:52;;;;;;;6.87;2.73;;;16.60;73.00;;;;;;5053351;28;46874;-62
2022/05/24 04:28:18;;;;;;;5.97;3.00;;;16.60;73.10;;;;;;5051721;28;46567;-62
2022/05/24 04:30:46;;;;;;;5.60;3.20;;;16.60;73.30;;;;;;5046920;28;46341;-62
2022/05/24 04:33:13;;;;;;;4.80;2.83;;;16.60;73.40;;;;;;5054478;28;46461;-62
2022/05/24 04:35:39;;;;;;;6.63;4.03;;;16.60;73.50;;;;;;5049335;28;47002;-61
2022/05/24 04:38:04;;;;;;;7.00;4.40;;;16.60;73.40;;;;;;5053231;28;46420;-62
2022/05/24 04:43:14;;;;;;;14.53;11.90;;;16.60;73.70;;;;;;5049975;28;46294;-62
2022/05/24 04:45:40;;;;;;;10.53;4.70;;;16.60;73.70;;;;;;5053223;28;46321;-61
2022/05/24 04:48:06;;;;;;;7.70;5.00;;;16.70;73.70;;;;;;5046422;28;46457;-61
2022/05/24 04:50:32;;;;;;;12.67;5.40;;;16.70;73.50;;;;;;5055762;28;46543;-62
2022/05/24 04:52:58;;;;;;;7.90;4.30;;;16.70;73.40;;;;;;5047999;28;46280;-62
2022/05/24 04:55:26;;;;;;;4.47;2.87;;;16.70;73.30;;;;;;5058128;28;46290;-62
2022/05/24 04:57:55;;;;;;;6.83;3.70;;;16.70;73.40;;;;;;5053517;28;46651;-62
2022/05/24 05:00:23;;;;;;;5.50;3.07;;;16.70;73.40;;;;;;5044928;28;45686;-61
2022/05/24 05:02:49;;;;;;;4.90;3.30;;;16.70;73.50;;;;;;5054262;28;46463;-62
2022/05/24 05:05:15;;;;;;;7.93;3.40;;;16.70;73.70;;;;;;5048716;28;46441;-63
2022/05/24 05:07:42;;;;;;;6.07;3.13;;;16.70;73.70;;;;;;5058724;28;46475;-62
2022/05/24 05:10:09;;;;;;;6.40;2.87;;;16.60;73.90;;;;;;5049540;28;46346;-62
2022/05/24 05:12:35;;;;;;;6.03;2.73;;;16.60;74.10;;;;;;5054379;28;45938;-62
2022/05/24 05:15:01;;;;;;;9.70;5.00;;;16.60;74.00;;;;;;5053561;28;48255;-61
2022/05/24 05:17:26;;;;;;;5.17;2.90;;;16.60;73.90;;;;;;5051536;28;46346;-61
2022/05/24 05:19:52;;;;;;;9.10;2.90;;;16.60;74.10;;;;;;5056681;28;46425;-62
2022/05/24 05:22:18;;;;;;;6.10;2.73;;;16.60;75.20;;;;;;5050437;28;46314;-62
2022/05/24 05:24:44;;;;;;;6.00;2.87;;;16.50;74.10;;;;;;5056985;28;46064;-61
2022/05/24 05:27:10;;;;;;;5.53;2.70;;;16.50;74.30;;;;;;5052880;28;46396;-63
2022/05/24 05:32:26;;;;;;;5.47;2.30;;;16.50;74.20;;;;;;5055348;28;46350;-63
2022/05/24 05:34:52;;;;;;;10.33;2.53;;;16.50;73.60;;;;;;5051915;28;47144;-64
2022/05/24 05:37:18;;;;;;;6.57;2.50;;;16.60;73.60;;;;;;5055128;28;46327;-63
2022/05/24 05:39:44;;;;;;;5.70;2.23;;;16.60;73.50;;;;;;5050102;28;46377;-62
2022/05/24 05:42:10;;;;;;;7.10;2.80;;;16.70;73.50;;;;;;5054456;28;46468;-62
2022/05/24 05:44:36;;;;;;;6.37;2.53;;;16.70;73.30;;;;;;5052448;28;46420;-62
2022/05/24 05:47:02;;;;;;;3.37;2.40;;;16.70;73.00;;;;;;5051917;28;46379;-62
2022/05/24 05:49:29;;;;;;;4.73;2.57;;;16.80;72.90;;;;;;5053193;28;46456;-63
2022/05/24 05:51:55;;;;;;;4.37;2.40;;;16.90;72.60;;;;;;5052848;28;46199;-62
2022/05/24 05:54:21;;;;;;;6.27;2.20;;;16.90;72.80;;;;;;5051316;28;46615;-61
2022/05/24 05:56:47;;;;;;;9.10;2.60;;;16.80;72.90;;;;;;5052757;28;46447;-63
2022/05/24 05:59:13;;;;;;;4.17;2.40;;;16.80;73.20;;;;;;5050242;28;46559;-62
2022/05/24 06:01:38;;;;;;;5.70;2.50;;;16.70;73.20;;;;;;5053659;28;46647;-62
2022/05/24 06:04:04;;;;;;;6.30;2.63;;;16.70;73.50;;;;;;5049284;28;46576;-63
2022/05/24 06:06:35;;;;;;;6.37;2.40;;;16.60;73.60;;;;;;5050219;28;46395;-62
2022/05/24 06:09:01;;;;;;;3.23;2.20;;;16.60;73.60;;;;;;5052637;28;46437;-61
2022/05/24 06:11:26;;;;;;;4.83;2.37;;;16.50;73.80;;;;;;5047319;28;46256;-61
2022/05/24 06:13:52;;;;;;;5.90;2.73;;;16.50;73.50;;;;;;5050151;28;46982;-62
2022/05/24 06:16:18;;;;;;;6.27;2.73;;;16.50;73.50;;;;;;5049900;28;46381;-62
2022/05/24 06:18:44;;;;;;;5.60;2.30;;;16.50;73.50;;;;;;5057126;28;46417;-62
2022/05/24 06:21:10;;;;;;;7.20;3.10;;;16.50;73.40;;;;;;5051918;28;46413;-63
2022/05/24 06:23:35;;;;;;;5.10;2.40;;;16.50;73.20;;;;;;5050832;28;46997;-63
2022/05/24 06:26:01;;;;;;;5.53;2.30;;;16.50;73.20;;;;;;5050540;28;46527;-62
2022/05/24 06:28:28;;;;;;;3.67;2.13;;;16.40;73.00;;;;;;5052531;28;46702;-62
2022/05/24 06:30:54;;;;;;;5.33;2.30;;;16.50;73.00;;;;;;5051999;28;46485;-62
2022/05/24 06:33:19;;;;;;;5.23;2.57;;;16.40;72.90;;;;;;5050059;28;46394;-62
2022/05/24 06:35:45;;;;;;;7.27;2.53;;;16.40;72.80;;;;;;5052016;28;46497;-62
2022/05/24 06:38:11;;;;;;;6.43;3.00;;;16.40;72.90;;;;;;5048420;28;46405;-62
2022/05/24 06:40:37;;;;;;;5.83;3.03;;;16.30;73.00;;;;;;5051909;28;46443;-60
2022/05/24 06:43:04;;;;;;;5.63;2.60;;;16.30;72.90;;;;;;5048491;28;46537;-62
2022/05/24 06:45:30;;;;;;;10.60;2.97;;;16.30;72.90;;;;;;5057756;28;46532;-62
2022/05/24 06:47:56;;;;;;;7.20;2.53;;;16.40;72.80;;;;;;5052213;28;46610;-60
2022/05/24 06:50:22;;;;;;;6.53;2.87;;;16.40;72.60;;;;;;5049079;28;46435;-63
2022/05/24 06:52:55;;;;;;;5.13;2.50;;;16.50;72.50;;;;;;5050666;28;47288;-62
2022/05/24 06:55:22;;;;;;;5.20;2.80;;;16.50;72.40;;;;;;5050923;28;46405;-62
2022/05/24 06:57:48;;;;;;;5.47;2.63;;;16.40;72.70;;;;;;5048249;28;46563;-62
2022/05/24 07:03:08;;;;;;;6.83;2.60;;;16.20;73.60;;;;;;5046869;28;46456;-62
2022/05/24 07:05:34;;;;;;;4.00;2.73;;;16.20;73.60;;;;;;5047622;28;45809;-62
2022/05/24 07:08:01;;;;;;;7.37;2.63;;;16.20;73.60;;;;;;5048670;28;46810;-62
2022/05/24 07:10:31;;;;;;;3.63;2.43;;;16.10;73.70;;;;;;5044181;28;45856;-61
2022/05/24 07:13:04;;;;;;;6.50;2.73;;;16.20;73.60;;;;;;5053189;28;46393;-62
2022/05/24 07:15:30;;;;;;;7.13;2.90;;;16.20;73.50;;;;;;5046179;28;45895;-62
2022/05/24 07:17:56;;;;;;;5.50;3.10;;;16.10;73.60;;;;;;5050701;28;46424;-62
2022/05/24 07:20:23;;;;;;;4.70;3.03;;;16.10;73.90;;;;;;5051678;28;46420;-62
2022/05/24 07:22:48;;;;;;;6.10;2.60;;;16.00;74.10;;;;;;5049656;28;46375;-61
2022/05/24 07:25:16;;;;;;;7.30;2.90;;;15.90;74.30;;;;;;5053567;28;46348;-61
2022/05/24 07:27:41;;;;;;;4.47;2.90;;;15.80;74.90;;;;;;5055928;28;46394;-62
2022/05/24 07:30:08;;;;;;;8.47;2.87;;;15.80;75.10;;;;;;5047970;28;46526;-62
2022/05/24 07:32:33;;;;;;;3.90;2.70;;;15.90;75.00;;;;;;5047053;28;46560;-62
2022/05/24 07:34:59;;;;;;;6.40;3.07;;;15.90;75.00;;;;;;5051720;28;46456;-61
2022/05/24 07:37:26;;;;;;;4.53;2.90;;;16.00;74.90;;;;;;5047523;28;46488;-62
2022/05/24 07:48:05;;;;;;;4.77;1.90;;;16.20;75.10;;;;;;5047036;28;46429;-60
2022/05/24 07:50:31;;;;;;;4.90;2.20;;;16.20;75.10;;;;;;5045309;28;46362;-62
2022/05/24 07:52:56;;;;;;;7.03;2.30;;;16.30;75.10;;;;;;5054655;28;46153;-62
2022/05/24 07:55:22;;;;;;;3.73;2.03;;;16.40;74.80;;;;;;5050643;28;46351;-62
2022/05/24 07:57:48;;;;;;;3.30;1.97;;;16.40;74.50;;;;;;5050155;28;46553;-62
2022/05/24 08:00:14;;;;;;;6.60;2.10;;;16.50;74.30;;;;;;5052390;28;46528;-61
2022/05/24 08:02:41;;;;;;;5.60;1.97;;;16.50;74.10;;;;;;5049234;28;46397;-60
2022/05/24 08:05:08;;;;;;;4.83;2.30;;;16.50;73.80;;;;;;5032780;28;46311;-63
2022/05/24 08:07:34;;;;;;;4.13;1.70;;;16.40;73.70;;;;;;5048527;28;46934;-63
2022/05/24 08:10:00;;;;;;;3.30;1.90;;;16.50;73.20;;;;;;5053293;28;46350;-63
2022/05/24 08:12:25;;;;;;;3.40;1.67;;;16.80;72.70;;;;;;5055426;28;46892;-62
2022/05/24 08:14:52;;;;;;;2.93;1.73;;;17.00;71.80;;;;;;5052505;28;46414;-63
2022/05/24 08:17:17;;;;;;;6.70;2.53;;;17.20;71.10;;;;;;5056075;28;46430;-63
2022/05/24 08:19:43;;;;;;;8.20;2.30;;;17.30;71.20;;;;;;5054405;28;46707;-63
2022/05/24 08:22:09;;;;;;;3.53;2.20;;;17.40;71.30;;;;;;5053277;28;46449;-62
2022/05/24 08:24:34;;;;;;;4.37;2.70;;;17.40;71.40;;;;;;5051250;28;46278;-62
2022/05/24 08:27:00;;;;;;;3.70;1.80;;;17.40;71.30;;;;;;5050594;28;47421;-63
2022/05/24 08:29:25;;;;;;;4.10;1.70;;;17.40;71.30;;;;;;5051332;28;46482;-62
2022/05/24 08:31:51;;;;;;;4.77;1.53;;;17.40;71.30;;;;;;5052919;28;46444;-62
2022/05/24 08:34:17;;;;;;;3.33;1.63;;;17.40;71.40;;;;;;5048123;28;46398;-64
2022/05/24 08:36:42;;;;;;;4.40;1.73;;;17.30;71.20;;;;;;5051910;28;46423;-63
2022/05/24 08:39:08;;;;;;;3.07;1.73;;;17.40;71.20;;;;;;5048160;28;45926;-63
2022/05/24 08:41:58;;;;;;;6.17;1.80;;;17.40;70.70;;;;;;5046745;28;46488;-63
2022/05/24 08:50:13;;;;;;;4.50;1.73;;;17.50;69.80;;;;;;5054493;28;46819;-62
2022/05/24 08:52:44;;;;;;;3.00;1.67;;;17.40;69.70;;;;;;5055866;28;47022;-61
2022/05/24 08:55:12;;;;;;;3.40;1.73;;;17.60;69.20;;;;;;5053045;28;46413;-61
2022/05/24 08:57:47;;;;;;;3.57;1.70;;;17.90;68.20;;;;;;5052427;28;46378;-62
2022/05/24 09:00:17;;;;;;;5.33;1.70;;;18.20;67.10;;;;;;5050761;28;46594;-62
2022/05/24 09:02:46;;;;;;;3.50;1.63;;;18.40;66.60;;;;;;5053477;28;46652;-62
2022/05/24 09:05:20;;;;;;;3.00;1.60;;;18.50;65.90;;;;;;5052267;28;46366;-62
2022/05/24 09:08:08;;;;;;;3.93;1.90;;;18.70;65.00;;;;;;5049655;28;46342;-62
2022/05/24 09:11:00;;;;;;;5.60;1.50;;;18.80;64.40;;;;;;5053901;28;46524;-62
2022/05/24 09:13:56;;;;;;;4.30;1.87;;;18.90;64.10;;;;;;5048884;28;46700;-62
2022/05/24 09:16:45;;;;;;;5.80;1.43;;;19.00;63.80;;;;;;5050170;28;46452;-62
2022/05/24 09:19:15;;;;;;;4.07;1.60;;;19.30;62.80;;;;;;5049293;28;46524;-62
2022/05/24 09:21:43;;;;;;;7.77;1.90;;;19.70;61.70;;;;;;5054743;28;46532;-63
2022/05/24 09:24:17;;;;;;;5.57;1.57;;;19.90;60.70;;;;;;5049302;28;46902;-62
2022/05/24 09:27:09;;;;;;;3.10;1.80;;;19.90;60.70;;;;;;5047362;28;46570;-62
2022/05/24 09:29:50;;;;;;;4.07;1.63;;;19.90;60.70;;;;;;5050220;28;46418;-62
2022/05/24 09:32:16;;;;;;;3.23;1.50;;;19.70;60.50;;;;;;5049188;28;46370;-62
2022/05/24 09:34:42;;;;;;;4.10;1.73;;;19.60;60.40;;;;;;5051596;28;46723;-63
2022/05/24 09:37:26;;;;;;;3.67;2.00;;;19.40;60.20;;;;;;5049198;28;46381;-62
2022/05/24 09:40:02;;;;;;;3.07;1.67;;;19.30;60.50;;;;;;5048219;28;46349;-62
2022/05/24 09:42:36;;;;;;;7.20;1.80;;;19.00;61.40;;;;;;5051255;28;46487;-61
2022/05/24 09:45:12;;;;;;;5.47;2.10;;;18.80;61.20;;;;;;5046994;28;47234;-62
2022/05/24 09:47:52;;;;;;;3.83;1.87;;;18.60;62.00;;;;;;5054835;28;46803;-62
2022/05/24 09:50:35;;;;;;;6.50;1.83;;;18.40;62.00;;;;;;5046795;28;46418;-61
2022/05/24 09:53:06;;;;;;;4.23;1.67;;;18.20;62.60;;;;;;5051068;28;46332;-61
2022/05/24 09:55:45;;;;;;;5.67;1.63;;;18.10;63.00;;;;;;5057579;28;46320;-60
2022/05/24 09:58:39;;;;;;;4.83;2.83;;;18.00;63.00;;;;;;5052583;28;46442;-60
2022/05/24 10:01:07;;;;;;;4.00;2.00;;;18.10;63.20;;;;;;5052030;28;45804;-61
2022/05/24 10:03:50;;;;;;;6.40;2.80;;;18.10;62.90;;;;;;5056285;28;46290;-61
2022/05/24 10:06:26;;;;;;;4.13;1.60;;;18.40;61.90;;;;;;5047437;28;46446;-61
2022/05/24 10:08:58;;;;;;;4.50;2.30;;;18.70;61.10;;;;;;5049787;28;47062;-62
2022/05/24 10:11:47;;;;;;;6.00;1.63;;;19.10;60.00;;;;;;5051614;28;46531;-61
2022/05/24 10:14:32;;;;;;;4.00;1.97;;;19.40;60.20;;;;;;5051194;28;46498;-63
2022/05/24 10:17:08;;;;;;;5.40;2.07;;;19.70;59.40;;;;;;5055517;28;48158;-61
2022/05/24 10:19:52;;;;;;;4.33;2.07;;;19.90;58.80;;;;;;5050806;28;46394;-61
2022/05/24 10:22:34;;;;;;;4.70;1.97;;;20.10;58.10;;;;;;5051602;28;46421;-62
2022/05/24 10:25:21;;;;;;;3.13;1.97;;;20.30;57.80;;;;;;5050710;28;46419;-60
2022/05/24 10:27:46;;;;;;;6.07;2.10;;;20.30;57.80;;;;;;5052141;28;46676;-61
2022/05/24 10:30:20;;;;;;;7.80;1.90;;;20.10;58.00;;;;;;5045249;28;46421;-61
2022/05/24 10:39:15;;;;;;;3.43;1.77;;;19.90;57.40;;;;;;5046191;28;46537;-61
2022/05/24 10:41:57;;;;;;;5.53;1.83;;;19.60;58.00;;;;;;5047783;28;46457;-61
2022/05/24 10:44:32;;;;;;;5.20;1.80;;;19.30;58.40;;;;;;5050609;28;46338;-62
2022/05/24 10:47:08;;;;;;;10.43;1.80;;;19.00;59.30;;;;;;5050739;28;46159;-61
2022/05/24 10:49:33;;;;;;;4.00;1.63;;;18.70;59.70;;;;;;5049815;28;46361;-62
2022/05/24 10:52:29;;;;;;;5.80;2.67;;;18.40;59.60;;;;;;5051056;28;46380;-62
2022/05/24 10:55:03;;;;;;;3.33;1.10;;;18.00;61.10;;;;;;5050442;28;45855;-62
2022/05/24 10:57:33;;;;;;;3.13;1.10;;;17.60;61.30;;;;;;5049307;28;45904;-61
2022/05/24 11:00:13;;;;;;;4.43;1.07;;;17.40;60.60;;;;;;5049615;28;47049;-61
2022/05/24 11:03:19;;;;;;;1.90;0.90;;;17.20;59.40;;;;;;5048487;28;46330;-62
2022/05/24 11:05:48;;;;;;;1.83;0.80;;;17.00;58.90;;;;;;5051434;28;46798;-63
2022/05/24 11:08:45;;;;;;;5.07;1.10;;;17.00;59.20;;;;;;5044195;28;46475;-62
2022/05/24 11:11:50;;;;;;;3.30;1.10;;;17.00;59.00;;;;;;5047391;28;46282;-63
2022/05/24 11:14:47;;;;;;;2.03;0.80;;;17.10;59.30;;;;;;5043321;28;46385;-63
2022/05/24 11:17:14;;;;;;;1.93;0.80;;;17.00;59.10;;;;;;5047629;28;46358;-62
2022/05/24 11:19:52;;;;;;;2.53;1.20;;;17.00;59.20;;;;;;5049982;28;45826;-62
2022/05/24 11:22:28;;;;;;;2.57;1.00;;;16.90;58.70;;;;;;5056152;28;47529;-61
2022/05/24 11:25:00;;;;;;;3.03;1.00;;;16.70;59.30;;;;;;5053726;28;46479;-61
2022/05/24 11:27:41;;;;;;;4.10;1.27;;;16.60;59.70;;;;;;5050512;28;46381;-62
2022/05/24 11:30:09;;;;;;;5.53;1.00;;;16.60;60.00;;;;;;5049747;28;46327;-62
2022/05/24 11:32:45;;;;;;;2.77;1.23;;;16.60;60.00;;;;;;5053363;28;46405;-62
2022/05/24 11:35:18;;;;;;;3.10;1.10;;;16.70;59.90;;;;;;5047735;28;46984;-61
2022/05/24 11:37:47;;;;;;;2.23;1.00;;;16.50;60.00;;;;;;5050732;28;46750;-61
2022/05/24 11:40:29;;;;;;;2.93;0.90;;;16.30;60.30;;;;;;5050383;28;46409;-61
2022/05/24 11:42:55;;;;;;;4.97;1.23;;;16.20;61.00;;;;;;5051724;28;46672;-61
2022/05/24 11:45:30;;;;;;;2.60;0.90;;;15.90;61.80;;;;;;5053699;28;46397;-62
2022/05/24 11:48:01;;;;;;;1.80;0.90;;;16.00;62.60;;;;;;5051152;28;46377;-60
2022/05/24 11:50:36;;;;;;;2.27;1.00;;;16.60;61.70;;;;;;5051846;28;45850;-62
2022/05/24 11:53:12;;;;;;;6.87;0.87;;;17.20;60.40;;;;;;5049905;28;47027;-62
2022/05/24 11:55:47;;;;;;;3.63;0.93;;;17.70;58.80;;;;;;5050629;28;46370;-61
2022/05/24 11:58:21;;;;;;;3.30;1.20;;;18.10;59.00;;;;;;5052504;28;46391;-61
2022/05/24 12:01:04;;;;;;;3.87;0.93;;;18.40;57.90;;;;;;5048414;28;46346;-62
2022/05/24 12:09:24;;;;;;;3.07;1.00;;;18.50;57.50;;;;;;5049959;28;46295;-62
2022/05/24 12:12:18;;;;;;;4.40;1.00;;;18.40;57.70;;;;;;5048272;28;46542;-62
2022/05/24 12:14:43;;;;;;;4.50;1.30;;;18.20;58.50;;;;;;5052958;28;46628;-61
2022/05/24 12:17:24;;;;;;;2.83;1.07;;;18.00;60.20;;;;;;5052820;28;46590;-62
2022/05/24 12:19:51;;;;;;;3.80;1.00;;;17.90;58.90;;;;;;5059280;28;46404;-62
2022/05/24 12:22:27;;;;;;;2.80;1.07;;;17.70;58.80;;;;;;5058696;28;46296;-62
2022/05/24 12:24:55;;;;;;;2.50;1.20;;;17.70;58.90;;;;;;5057498;28;46591;-61
2022/05/24 12:27:43;;;;;;;1.87;0.90;;;17.60;59.40;;;;;;5050424;28;46629;-61
2022/05/24 12:30:21;;;;;;;2.70;1.10;;;17.40;59.80;;;;;;5056557;28;46357;-61
2022/05/24 12:32:47;;;;;;;3.23;1.20;;;17.40;60.00;;;;;;5055641;28;46282;-62
2022/05/24 12:35:15;;;;;;;2.47;1.07;;;17.50;59.90;;;;;;5050523;28;46424;-61
2022/05/24 12:37:50;;;;;;;2.70;0.90;;;17.70;58.80;;;;;;5052063;28;47223;-60
2022/05/24 12:40:28;;;;;;;2.67;1.23;;;18.10;59.10;;;;;;5050312;28;46443;-62
2022/05/24 12:43:02;;;;;;;2.67;1.00;;;18.60;58.50;;;;;;5049269;28;46785;-62
2022/05/24 12:45:36;;;;;;;4.73;1.30;;;19.00;57.50;;;;;;5051364;28;47291;-60
2022/05/24 12:48:03;;;;;;;10.03;1.30;;;19.40;56.80;;;;;;5049818;28;46763;-62
2022/05/24 12:50:36;;;;;;;2.87;1.20;;;19.80;56.40;;;;;;5053819;28;45871;-62
2022/05/24 12:53:06;;;;;;;3.80;1.40;;;20.10;55.80;;;;;;5049485;28;46335;-61
2022/05/24 12:58:46;;;;;;;2.60;1.20;;;20.40;55.10;;;;;;5049096;28;46762;-62
2022/05/24 13:01:27;;;;;;;3.70;1.47;;;20.40;55.30;;;;;;5051959;28;46646;-62
2022/05/24 13:04:01;;;;;;;4.17;1.27;;;20.00;55.00;;;;;;5051062;28;46747;-62
2022/05/24 13:06:29;;;;;;;3.27;1.50;;;20.00;54.90;;;;;;5049624;28;46343;-62
2022/05/24 13:09:18;;;;;;;3.60;1.30;;;20.20;54.40;;;;;;5049809;28;46423;-61
2022/05/24 13:11:47;;;;;;;3.60;1.57;;;20.10;53.90;;;;;;5051478;28;46408;-61
2022/05/24 13:14:35;;;;;;;3.40;1.33;;;20.30;53.60;;;;;;5052408;28;46486;-61
2022/05/24 13:17:00;;;;;;;6.20;1.30;;;20.40;52.90;;;;;;5047931;28;47331;-61
2022/05/24 13:19:26;;;;;;;4.23;1.77;;;20.60;52.70;;;;;;5051809;28;46450;-61
2022/05/24 13:21:53;;;;;;;2.60;1.40;;;20.60;52.30;;;;;;5051808;28;46338;-62
2022/05/24 13:24:19;;;;;;;5.30;1.50;;;20.80;51.80;;;;;;5049711;28;45856;-61
2022/05/24 13:27:03;;;;;;;3.30;1.40;;;21.10;51.20;;;;;;5049498;28;47378;-61
2022/05/24 13:29:29;;;;;;;2.67;1.37;;;21.20;49.90;;;;;;5051463;28;46380;-63
2022/05/24 13:34:58;;;;;;;10.33;1.80;;;21.30;48.80;;;;;;5048730;28;46318;-62
2022/05/24 13:37:26;;;;;;;4.00;1.63;;;21.30;48.80;;;;;;5047269;28;46571;-61
2022/05/24 13:39:56;;;;;;;8.23;1.70;;;21.30;48.80;;;;;;5050523;28;46412;-62
2022/05/24 13:42:29;;;;;;;4.73;1.57;;;21.40;49.00;;;;;;5046857;28;45736;-61
2022/05/24 13:45:13;;;;;;;2.47;1.27;;;21.50;48.00;;;;;;5048436;28;46283;-61
2022/05/24 13:47:46;;;;;;;5.97;1.23;;;21.30;48.80;;;;;;5051027;28;47927;-61
2022/05/24 13:50:29;;;;;;;2.87;1.50;;;21.10;48.70;;;;;;5058321;28;46705;-61
2022/05/24 13:53:33;;;;;;;3.60;1.50;;;21.20;48.60;;;;;;5052226;28;46283;-61
2022/05/24 13:56:02;;;;;;;5.90;1.67;;;21.00;47.70;;;;;;5054813;28;46279;-62
2022/05/24 13:58:35;;;;;;;4.77;1.67;;;21.00;48.00;;;;;;5050229;28;46979;-61